createdAt,value
2023-01-02T00:02:14.296Z,9.63
2023-01-02T00:06:18.153Z,9.76
2023-01-02T00:10:20.127Z,9.82
2023-01-02T00:14:21.843Z,9.79
2023-01-02T00:18:23.836Z,9.82
2023-01-02T00:22:25.652Z,9.87
2023-01-02T00:26:30.048Z,9.95
2023-01-02T00:30:37.992Z,10.00
2023-01-02T00:34:40.236Z,10.00
2023-01-02T00:38:43.112Z,9.98
2023-01-02T00:42:44.911Z,9.91
2023-01-02T00:46:47.150Z,9.78
2023-01-02T00:50:49.463Z,9.76
2023-01-02T00:54:51.584Z,9.91
2023-01-02T00:58:53.274Z,9.92
2023-01-02T01:02:59.053Z,9.98
2023-01-02T01:07:01.093Z,9.88
2023-01-02T01:11:12.217Z,9.89
2023-01-02T01:15:14.130Z,9.94
2023-01-02T01:19:16.114Z,9.98
2023-01-02T01:23:17.778Z,9.94
2023-01-02T01:27:19.855Z,9.90
2023-01-02T01:31:22.881Z,9.93
2023-01-02T01:35:24.919Z,9.89
2023-01-02T01:39:26.748Z,9.99
2023-01-02T01:43:35.559Z,10.03
2023-01-02T01:47:40.781Z,9.99
2023-01-02T01:52:06.130Z,10.01
2023-01-02T01:56:10.584Z,10.01
2023-01-02T02:00:12.965Z,10.02
2023-01-02T02:04:18.471Z,10.01
2023-01-02T02:08:45.063Z,10.04
2023-01-02T02:12:46.982Z,10.02
2023-01-02T02:17:01.454Z,10.09
2023-01-02T02:21:24.933Z,10.07
2023-01-02T02:26:05.365Z,10.06
2023-01-02T02:30:21.497Z,10.07
2023-01-02T02:34:32.502Z,10.09
2023-01-02T02:38:58.840Z,10.04
2023-01-02T02:43:24.859Z,10.09
2023-01-02T02:47:44.321Z,10.05
2023-01-02T02:51:56.034Z,9.95
2023-01-02T02:56:01.502Z,9.91
2023-01-02T03:00:08.841Z,9.81
2023-01-02T03:04:19.315Z,9.77
2023-01-02T03:08:32.990Z,9.72
2023-01-02T03:12:48.611Z,9.71
2023-01-02T03:16:58.050Z,9.72
2023-01-02T03:21:06.231Z,9.78
2023-01-02T03:25:10.909Z,9.72
2023-01-02T03:29:21.632Z,9.70
2023-01-02T03:33:30.064Z,9.82
2023-01-02T03:37:34.281Z,9.73
2023-01-02T03:41:50.755Z,9.82
2023-01-02T03:46:19.259Z,9.86
2023-01-02T03:50:34.686Z,9.88
2023-01-02T03:54:37.889Z,9.76
2023-01-02T03:58:51.480Z,9.76
2023-01-02T04:03:11.990Z,9.56
2023-01-02T04:07:24.197Z,9.60
2023-01-02T04:11:29.753Z,9.48
2023-01-02T04:15:34.330Z,9.46
2023-01-02T04:20:01.802Z,9.45
2023-01-02T04:24:21.605Z,9.47
2023-01-02T04:28:29.648Z,9.48
2023-01-02T04:32:44.524Z,9.48
2023-01-02T04:36:46.511Z,9.45
2023-01-02T04:40:49.049Z,9.46
2023-01-02T04:44:51.012Z,9.40
2023-01-02T04:48:54.221Z,9.40
2023-01-02T04:52:56.242Z,9.25
2023-01-02T04:56:57.922Z,9.08
2023-01-02T05:01:00.237Z,9.06
2023-01-02T05:05:02.161Z,9.04
2023-01-02T05:09:04.185Z,9.12
2023-01-02T05:13:06.101Z,9.04
2023-01-02T05:17:08.005Z,8.95
2023-01-02T05:21:30.879Z,9.04
2023-01-02T05:25:35.415Z,9.07
2023-01-02T05:29:37.153Z,9.01
2023-01-02T05:33:39.414Z,9.08
2023-01-02T05:37:41.336Z,9.13
2023-01-02T05:41:43.680Z,8.97
2023-01-02T05:45:45.403Z,9.09
2023-01-02T05:49:47.385Z,9.11
2023-01-02T05:53:49.116Z,9.05
2023-01-02T05:57:55.139Z,9.02
2023-01-02T06:01:56.882Z,8.92
2023-01-02T06:06:06.707Z,8.82
2023-01-02T06:10:08.916Z,8.82
2023-01-02T06:14:11.056Z,8.58
2023-01-02T06:18:12.791Z,8.59
2023-01-02T06:22:14.752Z,8.41
2023-01-02T06:26:19.124Z,8.33
2023-01-02T06:30:21.105Z,8.25
2023-01-02T06:34:22.809Z,8.15
2023-01-02T06:38:24.766Z,8.12
2023-01-02T06:42:26.560Z,8.09
2023-01-02T06:46:28.921Z,8.02
2023-01-02T06:50:34.906Z,8.12
2023-01-02T06:54:37.265Z,8.03
2023-01-02T06:58:39.549Z,8.04
2023-01-02T07:02:42.250Z,7.90
2023-01-02T07:06:44.209Z,7.87
2023-01-02T07:10:50.968Z,7.96
2023-01-02T07:14:54.847Z,8.05
2023-01-02T07:18:56.781Z,8.13
2023-01-02T07:22:58.576Z,8.14
2023-01-02T07:27:00.732Z,8.21
2023-01-02T07:31:05.297Z,8.50
2023-01-02T07:35:08.196Z,8.57
2023-01-02T07:39:10.153Z,8.65
2023-01-02T07:43:12.065Z,8.72
2023-01-02T07:47:13.805Z,8.78
2023-01-02T07:51:19.800Z,8.79
2023-01-02T07:55:26.376Z,8.89
2023-01-02T07:59:28.404Z,8.97
2023-01-02T08:03:31.057Z,9.05
2023-01-02T08:07:33.088Z,9.12
2023-01-02T08:11:35.274Z,9.26
2023-01-02T08:15:37.773Z,9.34
2023-01-02T08:19:39.472Z,9.38
2023-01-02T08:23:41.497Z,9.54
2023-01-02T08:27:43.287Z,9.56
2023-01-02T08:31:45.223Z,9.66
2023-01-02T08:35:46.976Z,9.58
2023-01-02T08:39:48.939Z,9.74
2023-01-02T08:43:50.579Z,9.78
2023-01-02T08:47:52.677Z,9.87
2023-01-02T08:51:54.359Z,9.91
2023-01-02T08:56:17.028Z,10.10
2023-01-02T09:00:19.156Z,10.20
2023-01-02T09:04:21.283Z,10.32
2023-01-02T09:08:23.042Z,10.37
2023-01-02T09:12:25.708Z,10.30
2023-01-02T09:16:27.944Z,10.18
2023-01-02T09:20:29.644Z,10.24
2023-01-02T09:24:31.651Z,10.22
2023-01-02T09:28:35.351Z,10.22
2023-01-02T09:32:37.284Z,10.27
2023-01-02T09:36:39.515Z,10.35
2023-01-02T09:40:53.165Z,10.39
2023-01-02T09:45:01.685Z,10.39
2023-01-02T09:49:14.407Z,10.58
2023-01-02T09:53:16.393Z,10.85
2023-01-02T09:57:27.218Z,11.04
2023-01-02T10:02:16.644Z,11.10
2023-01-02T10:06:25.055Z,11.19
2023-01-02T10:10:26.803Z,11.20
2023-01-02T10:14:53.839Z,11.41
2023-01-02T10:18:56.747Z,11.44
2023-01-02T10:23:03.186Z,11.49
2023-01-02T10:27:12.462Z,11.58
2023-01-02T10:31:45.118Z,11.65
2023-01-02T10:35:53.237Z,11.75
2023-01-02T10:39:55.151Z,11.78
2023-01-02T10:44:04.651Z,11.79
2023-01-02T10:48:06.865Z,11.81
2023-01-02T10:52:31.527Z,11.80
2023-01-02T10:56:36.440Z,11.80
2023-01-02T11:00:38.708Z,11.86
2023-01-02T11:04:42.673Z,11.88
2023-01-02T11:08:44.705Z,11.84
2023-01-02T11:12:48.216Z,11.77
2023-01-02T11:16:50.677Z,11.82
2023-01-02T11:20:57.087Z,11.80
2023-01-02T11:25:02.512Z,11.85
2023-01-02T11:29:13.294Z,11.81
2023-01-02T11:33:24.166Z,11.92
2023-01-02T11:37:26.416Z,12.05
2023-01-02T11:41:58.444Z,12.24
2023-01-02T11:46:01.326Z,12.26
2023-01-02T11:50:03.610Z,12.24
2023-01-02T11:54:13.726Z,12.29
2023-01-02T11:58:31.032Z,12.36
2023-01-02T12:02:40.786Z,12.44
2023-01-02T12:06:59.803Z,12.41
2023-01-02T12:11:20.124Z,12.29
2023-01-02T12:15:36.582Z,12.34
2023-01-02T12:19:53.523Z,12.31
2023-01-02T12:24:14.083Z,12.34
2023-01-02T12:28:32.699Z,12.41
2023-01-02T12:32:46.341Z,12.36
2023-01-02T12:37:26.926Z,12.29
2023-01-02T12:42:11.561Z,12.20
2023-01-02T12:46:43.626Z,12.36
2023-01-02T12:51:12.829Z,12.24
2023-01-02T12:55:17.713Z,12.22
2023-01-02T12:59:43.820Z,12.12
2023-01-02T13:04:04.968Z,12.25
2023-01-02T13:08:16.806Z,12.47
2023-01-02T13:12:22.094Z,12.47
2023-01-02T13:16:25.765Z,12.47
2023-01-02T13:20:57.644Z,12.43
2023-01-02T13:25:01.653Z,12.41
2023-01-02T13:29:09.177Z,12.36
2023-01-02T13:33:16.923Z,12.36
2023-01-02T13:37:21.925Z,12.31
2023-01-02T13:41:25.319Z,12.25
2023-01-02T13:45:43.027Z,12.18
2023-01-02T13:49:50.312Z,12.13
2023-01-02T13:53:53.802Z,12.16
2023-01-02T13:58:18.163Z,12.10
2023-01-02T14:02:22.462Z,12.05
2023-01-02T14:06:34.269Z,12.08
2023-01-02T14:10:41.340Z,11.93
2023-01-02T14:14:49.924Z,11.87
2023-01-02T14:19:05.269Z,11.73
2023-01-02T14:23:09.500Z,11.58
2023-01-02T14:27:31.319Z,11.47
2023-01-02T14:31:34.684Z,11.32
2023-01-02T14:35:55.086Z,11.16
2023-01-02T14:40:17.289Z,11.07
2023-01-02T14:44:20.407Z,10.15
2023-01-02T14:48:31.361Z,10.24
2023-01-02T14:52:39.396Z,10.62
2023-01-02T14:56:44.214Z,10.80
2023-01-02T15:00:47.607Z,10.86
2023-01-02T15:05:06.208Z,10.51
2023-01-02T15:09:17.726Z,10.54
2023-01-02T15:13:21.956Z,9.79
2023-01-02T15:17:24.371Z,9.67
2023-01-02T15:21:29.501Z,10.03
2023-01-02T15:25:41.378Z,9.84
2023-01-02T15:29:48.095Z,10.00
2023-01-02T15:33:59.976Z,10.09
2023-01-02T15:38:04.635Z,10.00
2023-01-02T15:42:26.771Z,9.87
2023-01-02T15:46:29.223Z,9.72
2023-01-02T15:50:32.121Z,9.67
2023-01-02T15:54:37.102Z,9.64
2023-01-02T15:58:48.220Z,9.66
2023-01-02T16:02:50.225Z,9.61
2023-01-02T16:06:52.392Z,9.64
2023-01-02T16:11:01.163Z,9.62
2023-01-02T16:15:03.797Z,9.61
2023-01-02T16:19:05.769Z,9.70
2023-01-02T16:23:14.184Z,9.76
2023-01-02T16:27:25.855Z,9.75
2023-01-02T16:31:28.945Z,9.73
2023-01-02T16:35:37.420Z,9.80
2023-01-02T16:39:41.121Z,9.88
2023-01-02T16:43:46.252Z,9.75
2023-01-02T16:47:48.669Z,9.97
2023-01-02T16:51:53.264Z,9.85
2023-01-02T16:55:55.355Z,9.78
2023-01-02T16:59:57.342Z,9.99
2023-01-02T17:03:59.038Z,9.96
2023-01-02T17:08:00.924Z,9.94
2023-01-02T17:12:03.757Z,9.90
2023-01-02T17:16:06.810Z,9.82
2023-01-02T17:20:10.684Z,9.81
2023-01-02T17:24:12.629Z,10.01
2023-01-02T17:28:14.910Z,9.94
2023-01-02T17:32:18.195Z,9.91
2023-01-02T17:36:20.090Z,9.87
2023-01-02T17:40:21.961Z,9.74
2023-01-02T17:44:23.722Z,9.84
2023-01-02T17:48:25.713Z,9.79
2023-01-02T17:52:28.031Z,9.76
2023-01-02T17:56:30.803Z,9.67
2023-01-02T18:00:32.550Z,9.55
2023-01-02T18:04:34.530Z,9.52
2023-01-02T18:08:37.924Z,9.47
2023-01-02T18:12:39.826Z,9.59
2023-01-02T18:16:42.222Z,9.46
2023-01-02T18:20:46.505Z,9.43
2023-01-02T18:24:49.067Z,9.30
2023-01-02T18:29:01.529Z,9.27
2023-01-02T18:33:18.515Z,9.10
2023-01-02T18:37:26.635Z,9.03
2023-01-02T18:41:31.599Z,8.87
2023-01-02T18:45:33.556Z,8.85
2023-01-02T18:49:42.885Z,8.76
2023-01-02T18:53:53.518Z,8.79
2023-01-02T18:58:15.478Z,8.74
2023-01-02T19:02:39.711Z,8.83
2023-01-02T19:06:46.442Z,8.77
2023-01-02T19:10:53.186Z,9.02
2023-01-02T19:14:55.305Z,9.04
2023-01-02T19:18:57.256Z,9.10
2023-01-02T19:23:00.165Z,9.07
2023-01-02T19:27:08.977Z,9.15
2023-01-02T19:31:15.949Z,9.05
2023-01-02T19:35:38.435Z,9.03
2023-01-02T19:40:02.962Z,8.93
2023-01-02T19:44:04.765Z,9.07
2023-01-02T19:48:06.788Z,8.99
2023-01-02T19:52:10.160Z,9.01
2023-01-02T19:56:12.451Z,9.20
2023-01-02T20:00:16.551Z,9.23
2023-01-02T20:04:18.321Z,9.26
2023-01-02T20:08:20.306Z,9.33
2023-01-02T20:12:34.211Z,9.40
2023-01-02T20:16:36.215Z,9.67
2023-01-02T20:20:38.259Z,9.59
2023-01-02T20:24:40.285Z,9.49
2023-01-02T20:28:41.997Z,9.47
2023-01-02T20:32:43.927Z,9.52
2023-01-02T20:36:46.347Z,9.55
2023-01-02T20:40:48.228Z,9.55
2023-01-02T20:44:50.588Z,9.47
2023-01-02T20:48:52.813Z,8.51
2023-01-02T20:52:57.007Z,8.71
2023-01-02T20:56:59.336Z,8.87
2023-01-02T21:01:02.002Z,8.94
2023-01-02T21:05:04.816Z,8.97
2023-01-02T21:09:06.537Z,8.93
2023-01-02T21:13:09.411Z,8.82
2023-01-02T21:17:11.047Z,8.69
2023-01-02T21:21:17.560Z,8.56
2023-01-02T21:25:19.296Z,8.46
2023-01-02T21:29:21.189Z,8.38
2023-01-02T21:33:25.047Z,8.26
2023-01-02T21:37:26.744Z,8.11
2023-01-02T21:41:47.373Z,8.06
2023-01-02T21:45:49.979Z,8.13
2023-01-02T21:49:52.920Z,8.16
2023-01-02T21:53:56.026Z,8.22
2023-01-02T21:58:15.663Z,8.27
2023-01-02T22:02:18.164Z,8.36
2023-01-02T22:06:19.968Z,8.39
2023-01-02T22:10:21.862Z,8.36
2023-01-02T22:14:29.046Z,8.38
2023-01-02T22:18:36.217Z,8.50
2023-01-02T22:22:39.669Z,8.46
2023-01-02T22:26:43.463Z,8.59
2023-01-02T22:30:45.199Z,8.92
2023-01-02T22:34:47.251Z,9.53
2023-01-02T22:39:17.516Z,9.85
2023-01-02T22:43:16.810Z,9.96
2023-01-02T22:47:32.510Z,10.15
2023-01-02T22:52:05.474Z,10.21
2023-01-02T22:55:58.488Z,10.36
2023-01-02T23:00:00.106Z,10.52
2023-01-02T23:04:03.255Z,10.69
2023-01-02T23:08:05.252Z,10.51
2023-01-02T23:12:07.589Z,10.60
2023-01-02T23:16:28.185Z,10.54
2023-01-02T23:20:30.244Z,10.43
2023-01-02T23:24:34.892Z,10.44
2023-01-02T23:29:06.160Z,10.50
2023-01-02T23:32:58.517Z,10.72
2023-01-02T23:37:01.304Z,10.67
2023-01-02T23:41:03.522Z,10.72
2023-01-02T23:45:05.749Z,10.81
2023-01-02T23:49:08.827Z,10.84
2023-01-02T23:53:10.806Z,10.34
2023-01-02T23:57:12.458Z,10.82
